Time;durP1;ratioP1;P1;durP2;ratioP2;P2;SDS_P1;SDS_P2;PMS_P1;PMS_P2;Temp;Humidity;BMP_temperature;BMP_pressure;BME280_temperature;BME280_humidity;BME280_pressure;Samples;Min_cycle;Max_cycle;Signal;HPM_P1;HPM_P2
2022/05/16 00:01:21;;;;;;;15.73;12.65;;;;;;;19.47;69.64;99953.72;3121871;28;20060;-70
2022/05/16 00:02:53;;;;;;;17.92;12.88;;;;;;;19.45;69.24;99947.69;3121726;28;20056;-68
2022/05/16 00:04:25;;;;;;;18.65;12.93;;;;;;;19.55;68.98;99961.00;3120167;28;20525;-68
2022/05/16 00:05:58;;;;;;;15.13;12.43;;;;;;;19.23;68.82;99911.59;3115886;28;20100;-69
2022/05/16 00:07:29;;;;;;;15.60;12.05;;;;;;;19.51;68.42;99960.41;3115934;28;20108;-68
2022/05/16 00:09:03;;;;;;;14.70;12.57;;;;;;;19.53;68.25;99968.22;3115867;28;20053;-68
2022/05/16 00:10:36;;;;;;;19.75;12.48;;;;;;;19.54;68.21;99968.09;3115798;28;20049;-68
2022/05/16 00:12:11;;;;;;;17.98;12.75;;;;;;;19.53;67.90;99968.22;3115707;28;20096;-70
2022/05/16 00:13:42;;;;;;;18.73;13.05;;;;;;;19.51;67.97;99968.34;3115590;28;20127;-68
2022/05/16 00:15:16;;;;;;;15.55;12.30;;;;;;;19.48;67.85;99968.56;3115993;28;20057;-69
2022/05/16 00:16:48;;;;;;;16.33;12.55;;;;;;;19.32;67.81;99944.38;3115921;28;20064;-68
2022/05/16 00:18:20;;;;;;;15.07;13.35;;;;;;;19.47;67.84;99974.00;3115961;28;20107;-69
2022/05/16 00:19:52;;;;;;;17.92;12.38;;;;;;;19.47;67.88;99974.00;3115893;28;20053;-69
2022/05/16 00:21:24;;;;;;;16.85;13.40;;;;;;;19.44;67.54;99977.72;3116063;28;20564;-69
2022/05/16 00:22:56;;;;;;;14.60;11.77;;;;;;;19.40;67.52;99984.19;3115843;28;20057;-69
2022/05/16 00:24:29;;;;;;;15.48;12.30;;;;;;;19.35;67.50;99982.91;3113212;28;20560;-69
2022/05/16 00:26:01;;;;;;;13.95;11.07;;;;;;;19.28;67.50;99979.88;3115322;28;20045;-69
2022/05/16 00:27:34;;;;;;;15.80;11.77;;;;;;;19.26;67.41;99984.47;3115925;28;20053;-70
2022/05/16 00:29:06;;;;;;;13.43;11.52;;;;;;;19.20;67.59;99977.84;3115844;28;20049;-70
2022/05/16 00:30:37;;;;;;;15.82;11.90;;;;;;;19.06;67.52;99964.88;3115504;28;20053;-70
2022/05/16 00:32:10;;;;;;;16.85;11.90;;;;;;;19.07;67.54;99971.84;3115870;28;20092;-70
2022/05/16 00:33:42;;;;;;;14.65;11.70;;;;;;;19.02;67.86;99974.00;3115934;28;20111;-70
2022/05/16 00:35:15;;;;;;;16.27;12.77;;;;;;;18.70;67.60;99932.44;3116073;28;20107;-70
2022/05/16 00:36:47;;;;;;;17.30;12.25;;;;;;;18.98;67.44;99980.47;3115847;28;20312;-69
2022/05/16 00:38:18;;;;;;;14.02;12.15;;;;;;;18.96;67.59;99979.75;3115662;28;20111;-70
2022/05/16 00:39:52;;;;;;;20.13;13.30;;;;;;;18.70;68.11;99965.91;3115686;28;20057;-69
2022/05/16 00:41:24;;;;;;;15.52;13.25;;;;;;;18.64;68.65;99981.22;3115827;28;20057;-69
2022/05/16 00:43:02;;;;;;;19.75;13.82;;;;;;;18.49;68.97;99960.47;3115696;28;20057;-69
2022/05/16 00:44:35;;;;;;;20.80;13.93;;;;;;;18.54;69.55;99982.03;3115896;28;20057;-69
2022/05/16 00:46:06;;;;;;;18.33;14.07;;;;;;;18.44;69.83;99979.25;3115812;28;20064;-69
2022/05/16 00:47:38;;;;;;;19.25;13.73;;;;;;;18.37;70.32;99978.03;3115800;28;20096;-69
2022/05/16 00:49:14;;;;;;;20.13;14.85;;;;;;;18.30;70.70;99982.06;3116315;28;20119;-70
2022/05/16 00:50:47;;;;;;;21.83;15.02;;;;;;;18.21;71.48;99982.75;3117560;28;20053;-70
2022/05/16 00:52:22;;;;;;;18.58;14.90;;;;;;;18.17;71.49;99982.16;3115528;28;20107;-70
2022/05/16 00:53:59;;;;;;;20.55;15.30;;;;;;;18.08;71.63;99970.50;3119202;28;20132;-70
2022/05/16 00:55:34;;;;;;;26.40;15.70;;;;;;;17.99;71.91;99957.16;3120798;28;20424;-70
2022/05/16 00:57:09;;;;;;;19.38;15.40;;;;;;;18.04;72.14;99968.19;3120614;28;20106;-70
2022/05/16 00:58:43;;;;;;;18.33;15.68;;;;;;;18.07;72.16;99978.50;3119748;28;20053;-70
2022/05/16 01:00:18;;;;;;;23.08;16.33;;;;;;;17.85;71.90;99940.56;3120473;28;20413;-70
2022/05/16 01:05:30;;;;;;;20.27;15.45;;;;;;;18.12;72.21;99981.66;3119013;28;20077;-71
2022/05/16 01:07:03;;;;;;;21.65;16.33;;;;;;;18.14;72.05;99980.59;3120641;28;20053;-72
2022/05/16 01:08:43;;;;;;;20.13;15.45;;;;;;;18.16;71.96;99973.41;3120508;28;20152;-72
2022/05/16 01:10:18;;;;;;;19.23;15.55;;;;;;;18.11;72.37;99977.34;3120503;28;20057;-71
2022/05/16 01:11:53;;;;;;;20.65;15.75;;;;;;;17.93;72.44;99956.66;3120741;28;20061;-72
2022/05/16 01:13:25;;;;;;;22.55;16.67;;;;;;;18.03;72.83;99972.63;3120738;28;20053;-71
2022/05/16 01:14:59;;;;;;;19.58;16.83;;;;;;;17.98;73.14;99977.38;3129768;28;20080;-70
2022/05/16 01:16:31;;;;;;;21.60;16.27;;;;;;;17.98;73.35;99976.53;3120774;28;20049;-70
2022/05/16 01:18:05;;;;;;;21.13;17.23;;;;;;;17.96;73.37;99974.88;3120602;28;20107;-70
2022/05/16 01:19:36;;;;;;;24.83;16.80;;;;;;;17.94;73.89;99973.28;3120757;28;20045;-69
2022/05/16 01:21:34;;;;;;;23.17;16.45;;;;;;;17.93;73.83;99977.72;3120703;28;20117;-70
2022/05/16 01:23:08;;;;;;;21.98;16.55;;;;;;;17.91;73.72;99974.34;3113930;28;20514;-70
2022/05/16 01:24:40;;;;;;;;;;;;;;;17.91;73.42;99977.00;3114585;28;20111;-73
2022/05/16 01:26:21;;;;;;;20.55;15.85;;;;;;;17.79;73.42;99948.91;3120644;28;19921;-69
2022/05/16 01:27:56;;;;;;;19.08;14.85;;;;;;;17.83;73.56;99954.78;3120541;28;20519;-70
2022/05/16 01:29:27;;;;;;;19.00;15.68;;;;;;;17.94;73.53;99974.13;3120611;28;20081;-72
2022/05/16 01:30:59;;;;;;;19.00;15.82;;;;;;;17.98;73.53;99968.63;3120100;28;20049;-70
2022/05/16 01:32:32;;;;;;;22.77;16.52;;;;;;;17.88;73.47;99950.88;3124756;28;20045;-70
2022/05/16 01:34:03;;;;;;;23.52;16.02;;;;;;;17.99;73.22;99965.06;3120237;28;20474;-70
2022/05/16 01:35:35;;;;;;;18.95;16.23;;;;;;;17.96;73.09;99966.97;3121092;28;20049;-71
2022/05/16 01:37:08;;;;;;;21.08;15.27;;;;;;;18.05;73.12;99978.63;3120392;28;20053;-70
2022/05/16 01:38:41;;;;;;;23.02;16.75;;;;;;;17.96;73.19;99963.50;3120437;28;20582;-71
2022/05/16 01:40:13;;;;;;;27.27;16.05;;;;;;;18.00;73.27;99977.28;3125048;28;20050;-70
2022/05/16 01:41:45;;;;;;;17.88;14.90;;;;;;;18.02;73.13;99978.84;3123522;28;20057;-71
2022/05/16 01:43:17;;;;;;;20.52;15.38;;;;;;;17.85;73.06;99951.09;3122341;28;20138;-69
2022/05/16 01:44:49;;;;;;;24.93;15.57;;;;;;;18.01;73.01;99971.03;3120398;28;20060;-70
2022/05/16 01:46:24;;;;;;;18.73;15.75;;;;;;;18.03;72.82;99975.25;3119941;28;20050;-69
2022/05/16 01:47:56;;;;;;;24.80;16.48;;;;;;;17.98;72.76;99961.56;3120367;28;20084;-69
2022/05/16 01:49:28;;;;;;;19.67;15.57;;;;;;;18.10;72.50;99980.91;3120521;28;20050;-69
2022/05/16 01:51:02;;;;;;;17.85;15.40;;;;;;;18.12;72.33;99984.28;3120490;28;20049;-70
2022/05/16 01:52:33;;;;;;;;;;;;;;;18.12;72.13;99973.75;3114537;28;20045;-70
2022/05/16 01:54:07;;;;;;;21.90;15.60;;;;;;;18.07;72.19;99970.59;3120140;28;20533;-70
2022/05/16 01:55:39;;;;;;;21.63;14.75;;;;;;;18.11;72.21;99970.25;3120658;28;20092;-70
2022/05/16 01:57:11;;;;;;;23.77;16.00;;;;;;;18.12;72.15;99973.75;3120308;28;20107;-69
2022/05/16 01:58:44;;;;;;;20.83;16.35;;;;;;;17.71;71.82;99909.06;3120183;28;20049;-70
2022/05/16 02:00:17;;;;;;;21.77;15.30;;;;;;;18.15;72.27;99984.06;3122129;28;20115;-70
2022/05/16 02:01:49;;;;;;;21.27;15.68;;;;;;;18.14;72.41;99977.13;3120058;28;20045;-71
2022/05/16 02:03:21;;;;;;;21.67;16.17;;;;;;;18.01;71.99;99957.88;3120647;28;20486;-71
2022/05/16 02:04:52;;;;;;;18.33;15.70;;;;;;;18.17;71.92;99979.53;3120018;28;20420;-71
2022/05/16 02:06:25;;;;;;;20.52;15.52;;;;;;;18.18;71.90;99978.56;3120114;28;20080;-71
2022/05/16 02:07:57;;;;;;;18.85;14.73;;;;;;;18.19;71.69;99980.25;3120446;28;20068;-71
2022/05/16 02:09:30;;;;;;;24.23;15.88;;;;;;;18.21;71.63;99980.13;3120558;28;20053;-70
2022/05/16 02:11:02;;;;;;;;;;;;;;;18.19;71.33;99972.34;3120657;28;20872;-70
2022/05/16 02:12:34;;;;;;;19.55;14.73;;;;;;;18.18;71.39;99979.38;3120467;28;19920;-70
2022/05/16 02:14:06;;;;;;;23.15;16.00;;;;;;;18.13;71.42;99971.00;3120278;28;20138;-70
2022/05/16 02:15:39;;;;;;;17.70;15.18;;;;;;;18.19;71.25;99977.63;3120097;28;20452;-69
2022/05/16 02:17:11;;;;;;;19.50;14.82;;;;;;;18.17;71.16;99980.34;3114373;28;20049;-69
2022/05/16 02:18:44;;;;;;;19.25;14.30;;;;;;;18.20;70.91;99981.94;3119830;28;20111;-69
2022/05/16 02:20:15;;;;;;;19.58;14.35;;;;;;;18.11;70.80;99972.06;3121082;28;20057;-69
2022/05/16 02:25:28;;;;;;;18.92;14.15;;;;;;;18.17;70.23;99976.88;3122130;28;20534;-71
2022/05/16 02:27:00;;;;;;;16.77;13.23;;;;;;;18.02;70.47;99954.31;3115882;28;20442;-71
2022/05/16 02:28:31;;;;;;;18.10;13.55;;;;;;;18.17;70.26;99979.53;3122688;28;20049;-72
2022/05/16 02:30:03;;;;;;;19.92;14.52;;;;;;;18.05;70.25;99961.97;3122563;28;20053;-71
2022/05/16 02:31:35;;;;;;;20.30;15.23;;;;;;;18.00;70.21;99948.28;3122424;28;20049;-72
2022/05/16 02:33:07;;;;;;;21.10;14.55;;;;;;;18.17;70.43;99983.00;3121135;28;20104;-69
2022/05/16 02:34:39;;;;;;;22.48;16.45;;;;;;;18.14;70.45;99974.47;3122147;28;20056;-71
2022/05/16 02:36:11;;;;;;;27.58;16.33;;;;;;;18.12;70.51;99979.84;3122516;28;20053;-70
2022/05/16 02:37:43;;;;;;;19.70;15.20;;;;;;;18.11;70.48;99980.81;3122300;28;20458;-69
2022/05/16 02:39:17;;;;;;;20.95;15.32;;;;;;;18.06;70.61;99975.03;3122772;28;20057;-69
2022/05/16 02:40:50;;;;;;;22.77;17.02;;;;;;;18.04;70.54;99981.34;3122155;28;20045;-69
2022/05/16 02:42:22;;;;;;;23.50;15.43;;;;;;;17.94;70.65;99978.56;3122755;28;20124;-70
2022/05/16 02:43:54;;;;;;;21.17;15.07;;;;;;;17.93;70.56;99984.78;3122254;28;20061;-69
2022/05/16 02:45:27;;;;;;;18.70;13.82;;;;;;;17.76;70.61;99956.16;3122671;28;20602;-69
2022/05/16 02:46:59;;;;;;;22.15;15.43;;;;;;;17.85;70.64;99976.59;3122372;28;20056;-69
2022/05/16 02:48:31;;;;;;;20.35;14.55;;;;;;;17.83;70.47;99979.34;3122172;28;20186;-68
2022/05/16 02:50:03;;;;;;;21.27;14.77;;;;;;;17.73;70.31;99970.41;3122164;28;20049;-68
2022/05/16 02:51:35;;;;;;;18.20;14.63;;;;;;;17.83;70.29;99983.75;3121277;28;20084;-69
2022/05/16 02:53:07;;;;;;;19.08;14.02;;;;;;;17.73;70.35;99965.97;3122331;28;20061;-69
2022/05/16 02:54:39;;;;;;;21.25;14.35;;;;;;;17.84;69.95;99980.19;3122315;28;20077;-69
2022/05/16 02:56:12;;;;;;;17.33;13.95;;;;;;;17.84;69.94;99980.19;3122199;28;20135;-69
2022/05/16 02:57:44;;;;;;;19.27;12.82;;;;;;;17.82;69.87;99982.94;3121844;28;20519;-69
2022/05/16 02:59:16;;;;;;;16.15;11.93;;;;;;;17.67;69.81;99968.22;3122087;28;20551;-70
2022/05/16 03:00:48;;;;;;;20.20;13.60;;;;;;;17.77;69.82;99984.19;3121953;28;20049;-70
2022/05/16 03:02:20;;;;;;;15.93;12.48;;;;;;;17.76;69.85;99988.59;3122061;28;20054;-69
2022/05/16 03:03:52;;;;;;;14.52;12.10;;;;;;;17.74;69.77;99986.06;3122129;28;20435;-70
2022/05/16 03:05:24;;;;;;;19.95;12.98;;;;;;;17.70;69.45;99987.25;3122189;28;20050;-70
2022/05/16 03:06:56;;;;;;;18.35;12.48;;;;;;;17.68;69.59;99986.50;3121957;28;20075;-70
2022/05/16 03:08:28;;;;;;;16.98;12.55;;;;;;;17.69;69.43;99982.13;3121724;28;20200;-69
2022/05/16 03:10:00;;;;;;;19.35;12.35;;;;;;;17.42;69.44;99951.53;3122022;28;20092;-70
2022/05/16 03:11:34;;;;;;;17.35;12.05;;;;;;;17.55;69.44;99969.94;3121645;28;20049;-69
2022/05/16 03:13:06;;;;;;;17.05;11.35;;;;;;;17.64;69.38;99984.22;3122115;28;20550;-69
2022/05/16 03:14:37;;;;;;;16.88;11.50;;;;;;;17.62;69.38;99986.97;3121959;28;20103;-69
2022/05/16 03:16:09;;;;;;;19.00;12.10;;;;;;;17.48;69.07;99968.66;3121706;28;20057;-69
2022/05/16 03:17:40;;;;;;;16.08;11.48;;;;;;;17.58;69.14;99992.56;3122167;28;20053;-68
2022/05/16 03:19:12;;;;;;;21.55;11.20;;;;;;;17.54;69.06;99991.94;3121936;28;20135;-70
2022/05/16 03:20:44;;;;;;;19.48;10.57;;;;;;;17.52;68.85;99996.47;3121783;28;20194;-69
2022/05/16 03:22:17;;;;;;;18.77;11.50;;;;;;;17.29;68.79;99964.72;3121917;28;20131;-69
2022/05/16 03:23:48;;;;;;;15.97;11.63;;;;;;;17.45;68.84;99989.94;3121715;28;20057;-69
2022/05/16 03:25:21;;;;;;;17.92;11.02;;;;;;;17.42;68.84;99996.28;3121890;28;20104;-71
2022/05/16 03:26:54;;;;;;;15.90;11.45;;;;;;;17.38;68.99;100000.06;3121980;28;20104;-69
2022/05/16 03:28:26;;;;;;;16.63;10.80;;;;;;;17.27;69.07;99985.06;3121646;28;20119;-69
2022/05/16 03:29:58;;;;;;;18.52;10.32;;;;;;;17.36;68.87;100003.75;3121703;28;20450;-70
2022/05/16 03:31:30;;;;;;;17.40;10.90;;;;;;;17.38;68.88;100000.06;3121701;28;20119;-70
2022/05/16 03:33:01;;;;;;;19.38;11.20;;;;;;;17.41;68.73;100005.13;3118185;28;20508;-70
2022/05/16 03:34:33;;;;;;;16.77;10.68;;;;;;;17.43;68.76;100002.41;3121793;28;20053;-70
2022/05/16 03:36:06;;;;;;;14.82;10.60;;;;;;;17.46;68.72;100004.81;3121229;28;20045;-71
2022/05/16 03:37:37;;;;;;;13.98;10.63;;;;;;;17.48;68.38;100009.03;3121808;28;20123;-71
2022/05/16 03:40:58;;;;;;;16.02;10.30;;;;;;;17.47;68.27;99988.06;3121579;28;20053;-70
2022/05/16 03:42:31;;;;;;;14.38;9.73;;;;;;;17.52;67.78;100002.56;3121898;28;20045;-70
2022/05/16 03:44:04;;;;;;;11.90;9.65;;;;;;;17.48;67.79;99993.22;3121353;28;20050;-70
2022/05/16 03:45:36;;;;;;;18.52;10.05;;;;;;;17.58;67.49;100011.84;3121776;28;20084;-70
2022/05/16 03:47:08;;;;;;;14.52;9.50;;;;;;;17.37;67.38;99971.25;3121667;28;20057;-70
2022/05/16 03:48:40;;;;;;;14.18;9.38;;;;;;;17.23;67.00;99948.50;3121455;28;20057;-69
2022/05/16 03:50:13;;;;;;;16.20;9.48;;;;;;;17.60;67.04;100006.44;3121538;28;20057;-68
2022/05/16 03:51:45;;;;;;;12.55;8.75;;;;;;;17.63;66.96;100009.72;3121577;28;20049;-68
2022/05/16 03:53:15;;;;;;;13.63;8.98;;;;;;;17.68;66.58;100009.38;3121799;28;20486;-69
2022/05/16 03:54:47;;;;;;;20.80;9.57;;;;;;;17.67;66.44;100013.81;3121470;28;20130;-70
2022/05/16 03:56:22;;;;;;;20.17;9.88;;;;;;;17.70;66.41;100020.66;3121404;28;20053;-69
2022/05/16 03:57:56;;;;;;;16.58;9.00;;;;;;;17.72;66.49;100024.88;3120362;28;20115;-69
2022/05/16 03:59:28;;;;;;;15.93;9.48;;;;;;;17.72;66.31;100021.41;3121567;28;20455;-69
2022/05/16 04:01:00;;;;;;;14.13;8.65;;;;;;;17.73;66.20;100025.72;3121282;28;20057;-70
2022/05/16 04:02:32;;;;;;;16.15;8.73;;;;;;;17.68;66.04;100025.19;3121228;28;20068;-70
2022/05/16 04:04:04;;;;;;;11.57;7.70;;;;;;;17.64;66.02;100024.56;3117081;28;20042;-70
2022/05/16 04:05:37;;;;;;;10.70;7.70;;;;;;;17.59;66.08;100012.69;3121218;28;20053;-70
2022/05/16 04:07:09;;;;;;;14.88;8.43;;;;;;;17.55;66.06;100019.13;3121864;28;20053;-70
2022/05/16 04:08:42;;;;;;;12.38;8.82;;;;;;;17.59;65.98;100037.22;3121309;28;20144;-70
2022/05/16 04:10:15;;;;;;;24.42;8.63;;;;;;;17.59;66.11;100033.75;3121145;28;20052;-70
2022/05/16 04:11:47;;;;;;;;;;;;;;;17.60;65.96;100032.78;3121564;28;20156;-69
2022/05/16 04:13:20;;;;;;;12.05;8.13;;;;;;;17.62;65.95;100037.00;3121403;28;19936;-69
2022/05/16 04:14:52;;;;;;;15.45;8.20;;;;;;;17.64;65.91;100039.53;3121280;28;20053;-70
2022/05/16 04:16:24;;;;;;;13.95;8.25;;;;;;;17.67;65.95;100044.59;3121339;28;20573;-73
2022/05/16 04:17:56;;;;;;;14.55;8.32;;;;;;;17.71;65.69;100032.88;3127082;28;20107;-69
2022/05/16 04:19:28;;;;;;;10.18;7.55;;;;;;;17.71;65.68;100035.50;3121296;28;20104;-69
2022/05/16 04:21:00;;;;;;;12.57;7.97;;;;;;;17.69;65.54;100038.25;3118614;28;20416;-69
2022/05/16 04:22:31;;;;;;;14.02;7.97;;;;;;;17.70;65.61;100034.66;3125179;28;20049;-70
2022/05/16 04:24:05;;;;;;;10.60;8.20;;;;;;;17.73;65.30;100031.81;3121148;28;20084;-70
2022/05/16 04:25:37;;;;;;;11.75;7.78;;;;;;;17.74;65.29;100028.22;3121140;28;20139;-70
2022/05/16 04:27:09;;;;;;;11.93;7.70;;;;;;;17.57;65.14;100009.31;3121340;28;20046;-70
2022/05/16 04:28:42;;;;;;;11.13;7.53;;;;;;;17.76;65.11;100043.94;3120833;28;20531;-71
2022/05/16 04:30:15;;;;;;;;;;;;;;;17.71;65.09;100053.94;3121672;28;20164;-71
2022/05/16 04:31:46;;;;;;;10.55;6.80;;;;;;;17.71;64.82;100051.31;3126649;28;20463;-71
2022/05/16 04:33:18;;;;;;;16.13;7.85;;;;;;;17.72;64.87;100056.47;3118709;28;20057;-71
2022/05/16 04:34:50;;;;;;;12.10;7.07;;;;;;;17.71;64.86;100049.50;3122740;28;20163;-71
2022/05/16 04:36:22;;;;;;;13.15;7.00;;;;;;;17.66;64.81;100042.91;3121259;28;20482;-72
2022/05/16 04:37:54;;;;;;;15.60;7.97;;;;;;;17.59;64.55;100025.84;3120813;28;20053;-71
2022/05/16 04:39:26;;;;;;;16.70;8.05;;;;;;;17.74;64.42;100051.91;3124680;28;20053;-69
2022/05/16 04:42:48;;;;;;;13.02;7.07;;;;;;;17.55;64.39;100003.31;3120687;28;20053;-75
2022/05/16 04:44:20;;;;;;;15.65;7.43;;;;;;;17.73;64.27;100028.34;3121062;28;20420;-73
2022/05/16 04:45:52;;;;;;;11.02;7.05;;;;;;;17.37;63.87;99971.25;3120844;28;20056;-76
2022/05/16 04:47:27;;;;;;;12.18;7.07;;;;;;;17.70;64.15;100012.75;3120599;28;20136;-76
2022/05/16 04:48:59;;;;;;;14.25;7.63;;;;;;;17.47;63.82;99972.25;3115030;28;20064;-75
2022/05/16 04:50:34;;;;;;;15.40;7.43;;;;;;;17.71;63.79;100023.16;3119944;28;20049;-74
2022/05/16 04:52:11;;;;;;;13.07;7.95;;;;;;;17.89;63.83;100043.91;3111260;28;20088;-70
2022/05/16 04:53:43;;;;;;;12.77;7.35;;;;;;;17.90;63.95;100046.44;3111197;28;20097;-72
2022/05/16 04:55:15;;;;;;;16.05;7.85;;;;;;;17.88;64.02;100050.16;3110875;28;20061;-73
2022/05/16 04:56:47;;;;;;;13.35;6.97;;;;;;;17.78;64.02;100026.25;3111088;28;20231;-75
2022/05/16 04:58:21;;;;;;;13.73;7.22;;;;;;;17.91;64.08;100048.13;3110658;28;20120;-74
2022/05/16 04:59:55;;;;;;;18.00;7.70;;;;;;;17.97;63.85;100049.47;3110422;28;20526;-74
2022/05/16 05:01:26;;;;;;;;;;;;;;;17.98;63.89;100050.31;3110334;28;20122;-73
2022/05/16 05:02:58;;;;;;;15.82;6.65;;;;;;;17.98;63.75;100050.31;3111071;28;19925;-71
2022/05/16 05:04:31;;;;;;;11.55;6.78;;;;;;;17.80;63.89;100021.72;3107226;28;20584;-74
2022/05/16 05:06:03;;;;;;;14.47;7.23;;;;;;;18.01;63.92;100050.09;3110120;28;20140;-74
2022/05/16 05:07:36;;;;;;;11.60;7.65;;;;;;;17.99;63.82;100046.75;3115729;28;20053;-76
2022/05/16 05:09:09;;;;;;;14.50;7.78;;;;;;;18.00;63.62;100040.53;3110704;28;20332;-73
2022/05/16 05:14:36;;;;;;;11.20;7.00;;;;;;;18.23;63.28;100057.31;3110635;28;20057;-72
2022/05/16 05:16:17;;;;;;;13.23;7.53;;;;;;;18.21;63.27;100043.38;3111430;28;20541;-78
2022/05/16 05:17:49;;;;;;;16.30;7.40;;;;;;;18.34;62.86;100046.81;3105724;28;20083;-74
2022/05/16 05:19:21;;;;;;;10.30;7.27;;;;;;;18.42;62.93;100052.34;3117147;28;20055;-75
2022/05/16 05:20:54;;;;;;;36.15;7.93;;;;;;;18.52;62.67;100055.16;3113289;28;20053;-70
2022/05/16 05:22:26;;;;;;;13.82;7.25;;;;;;;18.59;62.44;100053.75;3118974;28;20110;-73
2022/05/16 05:23:59;;;;;;;36.50;13.00;;;;;;;18.68;62.28;100058.34;3118667;28;20493;-74
2022/05/16 05:25:31;;;;;;;34.92;16.23;;;;;;;18.50;62.33;100010.44;3120563;28;20053;-75
2022/05/16 05:27:04;;;;;;;15.23;9.07;;;;;;;18.89;62.05;100060.34;3116457;28;20049;-73
2022/05/16 05:28:38;;;;;;;12.25;7.13;;;;;;;18.99;61.61;100061.31;3115190;28;20114;-78
2022/05/16 05:34:42;;;;;;;8.80;6.50;;;;;;;19.18;60.52;100058.13;3059939;29;20624;-73
2022/05/16 05:36:15;;;;;;;17.77;7.10;;;;;;;19.31;60.43;100069.41;3076029;28;20107;-74
2022/05/16 05:37:48;;;;;;;46.53;25.08;;;;;;;19.38;60.24;100059.25;3114003;28;20837;-73
2022/05/16 05:39:20;;;;;;;26.83;17.65;;;;;;;19.22;60.21;100028.72;3110779;28;20135;-73
2022/05/16 05:40:52;;;;;;;13.57;8.75;;;;;;;19.50;59.61;100066.19;3110340;28;20135;-73
2022/05/16 05:42:33;;;;;;;20.80;9.53;;;;;;;19.58;59.66;100062.94;3117058;28;20052;-76
2022/05/16 05:44:05;;;;;;;10.10;6.50;;;;;;;19.60;59.20;100063.66;3111614;28;20454;-73
2022/05/16 05:45:38;;;;;;;9.63;6.83;;;;;;;19.61;59.13;100060.91;3119252;28;20049;-70
2022/05/16 05:47:10;;;;;;;9.40;5.85;;;;;;;19.68;58.76;100062.13;3120376;28;20394;-70
2022/05/16 05:48:42;;;;;;;12.27;6.70;;;;;;;19.75;58.88;100063.31;3117130;28;20442;-73
2022/05/16 05:50:16;;;;;;;9.35;6.32;;;;;;;19.85;58.54;100062.63;3113276;28;20406;-68
2022/05/16 05:51:48;;;;;;;11.02;6.30;;;;;;;19.77;57.93;100047.34;3112706;28;20590;-70
2022/05/16 05:53:20;;;;;;;8.32;5.85;;;;;;;19.88;57.84;100067.66;3110593;28;20123;-69
2022/05/16 05:54:52;;;;;;;9.25;5.90;;;;;;;19.96;57.69;100058.13;3111435;28;20053;-69
2022/05/16 05:56:24;;;;;;;12.68;5.63;;;;;;;20.01;57.98;100057.75;3103900;28;20081;-74
2022/05/16 05:57:57;;;;;;;19.88;6.40;;;;;;;20.11;57.42;100060.50;3111130;28;20137;-72
2022/05/16 05:59:29;;;;;;;11.68;5.90;;;;;;;20.17;57.17;100060.00;3107945;28;20057;-73
2022/05/16 06:01:01;;;;;;;10.57;5.55;;;;;;;20.25;56.94;100064.69;3113119;28;20546;-70
2022/05/16 06:02:33;;;;;;;14.95;6.28;;;;;;;20.25;56.51;100062.03;3113413;28;21822;-69
2022/05/16 06:04:06;;;;;;;9.50;5.85;;;;;;;20.25;56.39;100062.03;3112920;28;20049;-70
2022/05/16 06:05:39;;;;;;;10.20;5.97;;;;;;;20.30;56.35;100066.00;3113437;28;20059;-69
2022/05/16 06:07:11;;;;;;;;;;;;;;;20.30;56.35;100066.00;3113215;28;20903;-68
2022/05/16 06:08:43;;;;;;;7.60;5.60;;;;;;;20.29;56.31;100069.59;3113045;28;19929;-68
2022/05/16 06:10:15;;;;;;;9.93;5.75;;;;;;;20.30;55.74;100071.28;3113268;28;20409;-70
2022/05/16 06:11:48;;;;;;;13.45;5.50;;;;;;;20.33;55.84;100065.75;3106661;28;20050;-70
2022/05/16 06:13:21;;;;;;;9.70;5.43;;;;;;;20.33;55.61;100067.53;3113570;28;20053;-68
2022/05/16 06:14:53;;;;;;;9.90;6.25;;;;;;;20.35;55.67;100068.25;3112348;28;20061;-69
2022/05/16 06:16:25;;;;;;;13.75;6.43;;;;;;;20.35;56.08;100066.47;3118325;28;20049;-70
2022/05/16 06:17:57;;;;;;;10.13;5.75;;;;;;;20.45;56.15;100067.38;3113174;28;20057;-70
2022/05/16 06:19:29;;;;;;;11.77;6.22;;;;;;;20.55;56.05;100064.00;3112849;28;20053;-68
2022/05/16 06:21:03;;;;;;;13.68;6.18;;;;;;;20.64;55.75;100064.06;3113625;28;20057;-69
2022/05/16 06:22:35;;;;;;;13.68;6.85;;;;;;;20.71;55.92;100064.41;3113562;28;20550;-67
2022/05/16 06:25:31;;;;;;;12.73;6.40;;;;;;;20.75;55.52;100067.66;3113002;28;20176;-69
2022/05/16 06:26:00;;;;;;;7.70;6.00;;;;;;;20.82;55.38;100071.44;3112737;28;20164;-71
2022/05/16 06:27:32;;;;;;;13.10;5.68;;;;;;;20.86;55.20;100076.38;3113708;28;20072;-69
2022/05/16 06:29:04;;;;;;;10.60;6.57;;;;;;;20.94;55.31;100062.50;3113571;28;20064;-72
2022/05/16 06:30:40;;;;;;;11.48;6.00;;;;;;;21.02;54.99;100070.59;3113047;28;20060;-69
2022/05/16 06:32:12;;;;;;;10.75;6.20;;;;;;;21.11;54.96;100063.69;3112859;28;20394;-73
2022/05/16 06:33:47;;;;;;;15.27;6.93;;;;;;;21.17;54.82;100059.69;3112051;28;20117;-70
2022/05/16 06:35:19;;;;;;;8.50;5.90;;;;;;;21.33;54.94;100065.38;3113105;28;20092;-72
2022/05/16 06:36:53;;;;;;;10.20;5.65;;;;;;;21.47;54.74;100066.84;3112972;28;20089;-70
2022/05/16 06:38:26;;;;;;;;;;;;;;;21.57;54.71;100057.13;3113647;28;20064;-67
2022/05/16 06:39:58;;;;;;;7.43;5.15;;;;;;;21.66;54.00;100066.09;3112576;28;20395;-69
2022/05/16 06:41:32;;;;;;;10.15;6.28;;;;;;;21.72;53.89;100060.25;3117180;28;20088;-70
2022/05/16 06:43:04;;;;;;;8.65;5.63;;;;;;;21.79;53.81;100069.34;3117569;28;20049;-70
2022/05/16 06:44:36;;;;;;;14.82;6.10;;;;;;;21.87;53.77;100064.22;3112523;28;20085;-68
2022/05/16 06:46:08;;;;;;;9.57;6.38;;;;;;;21.74;53.80;100024.69;3112171;28;20088;-69
2022/05/16 06:47:41;;;;;;;12.20;6.32;;;;;;;22.03;53.49;100053.91;3113394;28;20442;-70
2022/05/16 06:49:13;;;;;;;9.57;6.05;;;;;;;22.15;53.37;100059.09;3112444;28;20049;-67
2022/05/16 06:50:47;;;;;;;12.87;6.30;;;;;;;22.20;53.15;100059.56;3113958;28;20497;-67
2022/05/16 06:52:22;;;;;;;10.35;5.40;;;;;;;22.25;52.99;100052.03;3122328;28;20132;-67
2022/05/16 06:53:55;;;;;;;11.77;6.43;;;;;;;22.23;52.66;100040.72;3111915;28;20049;-70
2022/05/16 06:55:28;;;;;;;14.27;6.73;;;;;;;22.49;52.32;100062.25;3112362;28;20060;-71
2022/05/16 06:57:00;;;;;;;10.23;6.20;;;;;;;22.49;52.11;100041.00;3111738;28;20800;-70
2022/05/16 06:58:32;;;;;;;13.88;6.03;;;;;;;22.69;51.74;100058.59;3105691;28;20064;-72
2022/05/16 07:00:06;;;;;;;7.78;6.10;;;;;;;22.71;51.71;100043.34;3118823;28;20107;-71
2022/05/16 07:01:38;;;;;;;8.70;6.70;;;;;;;22.80;51.32;100054.09;3122200;28;20062;-71
2022/05/16 07:03:11;;;;;;;14.13;5.85;;;;;;;22.95;51.51;100060.69;3122283;28;20053;-73
2022/05/16 07:04:43;;;;;;;11.52;6.65;;;;;;;23.09;51.62;100056.75;3120882;28;21034;-71
2022/05/16 07:06:15;;;;;;;10.70;6.38;;;;;;;23.21;50.89;100057.41;3121634;28;20045;-67
2022/05/16 07:07:49;;;;;;;10.88;7.65;;;;;;;23.29;50.63;100054.88;3121804;28;20103;-68
2022/05/16 07:09:20;;;;;;;;;;;;;;;23.46;50.78;100064.75;3122272;28;20115;-75
2022/05/16 07:10:53;;;;;;;8.57;6.32;;;;;;;23.53;50.76;100054.38;3121299;28;19925;-70
2022/05/16 07:12:25;;;;;;;10.18;6.18;;;;;;;23.68;50.09;100058.22;3121911;28;20515;-68
2022/05/16 07:13:57;;;;;;;10.63;7.28;;;;;;;23.83;50.02;100059.41;3121972;28;20092;-72
2022/05/16 07:15:29;;;;;;;11.27;6.47;;;;;;;23.58;49.54;100012.25;3121973;28;20379;-74
2022/05/16 07:17:01;;;;;;;13.25;10.80;;;;;;;23.98;49.13;100064.25;3122050;28;20049;-76
2022/05/16 07:18:33;;;;;;;11.60;6.55;;;;;;;23.93;48.90;100038.09;3121803;28;20507;-75
2022/05/16 07:20:06;;;;;;;11.38;7.28;;;;;;;23.90;48.66;100035.75;3131159;28;20597;-76
2022/05/16 07:21:38;;;;;;;10.30;6.40;;;;;;;23.90;48.70;100029.56;3121594;28;20067;-73
2022/05/16 07:23:11;;;;;;;9.32;6.80;;;;;;;24.07;48.71;100055.34;3124834;28;20112;-75
2022/05/16 07:24:44;;;;;;;8.07;6.00;;;;;;;24.14;49.16;100048.47;3122193;28;20111;-74
2022/05/16 07:28:06;;;;;;;12.10;7.30;;;;;;;24.33;48.23;100054.63;3121956;28;20057;-75
2022/05/16 07:29:38;;;;;;;10.90;6.60;;;;;;;24.39;48.34;100052.19;3121967;28;20194;-75